createdAt,value
2023-04-10T00:01:10.739Z,6.50
2023-04-10T00:04:14.301Z,6.30
2023-04-10T00:07:17.546Z,7.33
2023-04-10T00:10:20.706Z,5.83
2023-04-10T00:13:24.017Z,7.50
2023-04-10T00:16:28.548Z,6.57
2023-04-10T00:19:32.094Z,7.03
2023-04-10T00:22:35.434Z,7.70
2023-04-10T00:25:38.516Z,6.83
2023-04-10T00:28:41.577Z,5.70
2023-04-10T00:31:46.055Z,5.67
2023-04-10T00:34:49.198Z,6.07
2023-04-10T00:37:54.601Z,5.63
2023-04-10T00:40:57.654Z,5.70
2023-04-10T00:44:00.924Z,5.60
2023-04-10T00:47:05.574Z,5.53
2023-04-10T00:50:09.267Z,6.60
2023-04-10T00:53:12.367Z,6.37
2023-04-10T00:56:16.236Z,7.30
2023-04-10T00:59:19.520Z,5.73
2023-04-10T01:02:24.137Z,5.90
2023-04-10T01:05:30.334Z,6.33
2023-04-10T01:08:41.264Z,5.70
2023-04-10T01:11:52.530Z,6.47
2023-04-10T01:15:03.436Z,6.83
2023-04-10T01:18:17.757Z,7.67
2023-04-10T01:21:24.104Z,5.70
2023-04-10T01:24:44.018Z,7.30
2023-04-10T01:28:02.000Z,5.40
2023-04-10T01:31:09.352Z,5.70
2023-04-10T01:34:18.519Z,6.03
2023-04-10T01:37:24.672Z,6.70
2023-04-10T01:40:28.433Z,6.23
2023-04-10T01:43:33.206Z,6.93
2023-04-10T01:46:39.868Z,6.07
2023-04-10T01:49:44.998Z,6.70
2023-04-10T01:52:48.994Z,6.80
2023-04-10T01:55:53.738Z,7.30
2023-04-10T01:58:57.718Z,6.67
2023-04-10T02:02:02.621Z,7.00
2023-04-10T02:05:06.392Z,6.60
2023-04-10T02:08:16.333Z,6.67
2023-04-10T02:11:38.078Z,6.73
2023-04-10T02:14:46.177Z,8.10
2023-04-10T02:17:51.747Z,6.73
2023-04-10T02:20:58.985Z,5.20
2023-04-10T02:24:02.622Z,6.70
2023-04-10T02:27:05.920Z,7.27
2023-04-10T02:30:09.918Z,5.70
2023-04-10T02:33:14.308Z,8.83
2023-04-10T02:36:17.340Z,6.50
2023-04-10T02:39:20.458Z,5.77
2023-04-10T02:42:23.532Z,5.50
2023-04-10T02:45:26.678Z,5.90
2023-04-10T02:48:31.113Z,6.63
2023-04-10T02:51:36.521Z,6.33
2023-04-10T02:54:39.602Z,6.40
2023-04-10T02:57:43.049Z,6.60
2023-04-10T03:00:49.775Z,6.73
2023-04-10T03:03:54.616Z,6.90
2023-04-10T03:06:59.644Z,5.97
2023-04-10T03:10:02.837Z,6.53
2023-04-10T03:13:05.911Z,6.00
2023-04-10T03:16:09.311Z,6.33
2023-04-10T03:19:13.789Z,6.87
2023-04-10T03:22:16.844Z,5.47
2023-04-10T03:25:19.974Z,7.83
2023-04-10T03:28:23.216Z,6.07
2023-04-10T03:31:26.401Z,6.60
2023-04-10T03:34:30.855Z,8.37
2023-04-10T03:37:33.990Z,6.37
2023-04-10T03:40:37.762Z,6.10
2023-04-10T03:43:41.267Z,5.57
2023-04-10T03:46:44.508Z,6.07
2023-04-10T03:49:48.994Z,7.67
2023-04-10T03:52:52.630Z,6.87
2023-04-10T03:55:55.795Z,6.07
2023-04-10T03:58:58.897Z,6.90
2023-04-10T04:02:02.077Z,7.27
2023-04-10T04:05:07.304Z,6.47
2023-04-10T04:08:10.508Z,6.77
2023-04-10T04:11:13.613Z,8.10
2023-04-10T04:14:16.692Z,5.63
2023-04-10T04:17:19.899Z,6.83
2023-04-10T04:20:24.520Z,6.60
2023-04-10T04:23:27.626Z,6.30
2023-04-10T04:26:31.682Z,7.50
2023-04-10T04:29:34.828Z,7.07
2023-04-10T04:32:37.979Z,6.10
2023-04-10T04:35:42.459Z,5.93
2023-04-10T04:38:45.534Z,7.87
2023-04-10T04:41:48.585Z,8.23
2023-04-10T04:44:51.843Z,5.43
2023-04-10T04:47:55.010Z,6.47
2023-04-10T04:50:59.466Z,6.40
2023-04-10T04:54:02.501Z,7.43
2023-04-10T04:57:05.679Z,7.43
2023-04-10T05:00:09.945Z,6.30
2023-04-10T05:03:13.119Z,9.10
2023-04-10T05:06:18.750Z,8.60
2023-04-10T05:09:21.842Z,9.10
2023-04-10T05:12:24.961Z,7.33
2023-04-10T05:15:28.717Z,7.43
2023-04-10T05:18:31.880Z,8.30
2023-04-10T05:21:37.637Z,5.77
2023-04-10T05:24:40.804Z,8.50
2023-04-10T05:27:43.897Z,7.17
2023-04-10T05:30:46.946Z,7.27
2023-04-10T05:33:50.049Z,9.20
2023-04-10T05:36:56.152Z,7.30
2023-04-10T05:40:00.901Z,6.80
2023-04-10T05:43:04.178Z,7.43
2023-04-10T05:46:07.997Z,7.57
2023-04-10T05:49:11.166Z,8.27
2023-04-10T05:52:15.581Z,8.73
2023-04-10T05:55:18.711Z,8.80
2023-04-10T05:58:21.815Z,7.40
2023-04-10T06:01:24.969Z,8.10
2023-04-10T06:04:28.288Z,8.27
2023-04-10T06:07:33.494Z,9.20
2023-04-10T06:10:36.604Z,7.60
2023-04-10T06:13:39.701Z,8.63
2023-04-10T06:16:43.292Z,8.00
2023-04-10T06:19:46.431Z,8.27
2023-04-10T06:22:50.833Z,6.93
2023-04-10T06:25:53.945Z,8.03
2023-04-10T06:28:57.073Z,7.10
2023-04-10T06:32:00.718Z,8.73
2023-04-10T06:35:03.840Z,6.73
2023-04-10T06:38:08.995Z,7.30
2023-04-10T06:41:12.114Z,8.10
2023-04-10T06:44:15.159Z,8.77
2023-04-10T06:47:18.409Z,8.00
2023-04-10T06:50:21.597Z,7.10
2023-04-10T06:53:26.214Z,8.00
2023-04-10T06:56:29.323Z,7.90
2023-04-10T06:59:34.846Z,7.60
2023-04-10T07:02:37.982Z,8.03
2023-04-10T07:05:42.356Z,8.10
2023-04-10T07:08:46.972Z,7.97
2023-04-10T07:11:50.010Z,7.23
2023-04-10T07:14:56.087Z,8.53
2023-04-10T07:17:59.208Z,8.33
2023-04-10T07:21:02.533Z,9.50
2023-04-10T07:24:07.206Z,8.80
2023-04-10T07:27:10.249Z,8.57
2023-04-10T07:30:13.788Z,8.43
2023-04-10T07:33:17.333Z,8.20
2023-04-10T07:36:20.530Z,7.13
2023-04-10T07:39:24.983Z,7.63
2023-04-10T07:42:28.097Z,7.60
2023-04-10T07:45:31.282Z,7.83
2023-04-10T07:48:34.439Z,8.48
2023-04-10T07:51:37.539Z,8.20
2023-04-10T07:54:41.990Z,8.10
2023-04-10T07:57:45.158Z,7.63
2023-04-10T08:00:48.241Z,8.25
2023-04-10T08:03:52.178Z,7.82
2023-04-10T08:06:55.394Z,7.53
2023-04-10T08:09:59.862Z,8.05
2023-04-10T08:13:02.976Z,8.30
2023-04-10T08:16:06.694Z,7.50
2023-04-10T08:19:10.181Z,7.45
2023-04-10T08:22:13.279Z,6.97
2023-04-10T08:25:17.809Z,7.18
2023-04-10T08:28:21.399Z,6.93
2023-04-10T08:31:25.858Z,6.72
2023-04-10T08:34:29.180Z,6.53
2023-04-10T08:37:32.274Z,6.55
2023-04-10T08:40:39.779Z,5.70
2023-04-10T08:43:43.589Z,6.07
2023-04-10T08:46:46.877Z,6.97
2023-04-10T08:49:55.301Z,6.80
2023-04-10T08:53:06.250Z,6.65
2023-04-10T08:56:14.854Z,6.47
2023-04-10T08:59:18.278Z,6.82
2023-04-10T09:02:23.654Z,6.47
2023-04-10T09:05:28.687Z,6.93
2023-04-10T09:08:31.819Z,5.70
2023-04-10T09:12:01.500Z,6.72
2023-04-10T09:15:05.508Z,6.40
2023-04-10T09:18:08.705Z,6.13
2023-04-10T09:21:13.322Z,5.65
2023-04-10T09:24:16.413Z,6.95
2023-04-10T09:27:35.358Z,7.18
2023-04-10T09:30:41.409Z,6.25
2023-04-10T09:33:44.478Z,6.50
2023-04-10T09:36:56.086Z,7.00
2023-04-10T09:39:59.312Z,6.13
2023-04-10T09:43:18.841Z,6.88
2023-04-10T09:46:28.787Z,6.25
2023-04-10T09:49:47.296Z,7.38
2023-04-10T09:52:58.990Z,6.60
2023-04-10T09:56:02.501Z,7.85
2023-04-10T09:59:08.608Z,8.18
2023-04-10T10:02:14.503Z,7.47
2023-04-10T10:05:17.953Z,7.10
2023-04-10T10:08:21.757Z,7.37
2023-04-10T10:11:27.168Z,7.17
2023-04-10T10:14:33.343Z,7.43
2023-04-10T10:17:44.090Z,6.00
2023-04-10T10:20:47.784Z,6.30
2023-04-10T10:23:54.158Z,5.40
2023-04-10T10:26:58.365Z,5.60
2023-04-10T10:30:11.866Z,5.70
2023-04-10T10:33:20.032Z,5.63
2023-04-10T10:36:24.857Z,5.90
2023-04-10T10:39:35.689Z,6.67
2023-04-10T10:42:46.865Z,6.50
2023-04-10T10:45:57.292Z,6.70
2023-04-10T10:49:02.251Z,6.97
2023-04-10T10:52:05.592Z,6.60
2023-04-10T10:55:38.476Z,6.30
2023-04-10T10:58:48.716Z,6.00
2023-04-10T11:02:16.778Z,7.07
2023-04-10T11:05:50.953Z,7.03
2023-04-10T11:08:54.583Z,6.90
2023-04-10T11:11:59.931Z,11.63
2023-04-10T11:15:05.012Z,16.40
2023-04-10T11:18:09.514Z,17.80
2023-04-10T11:21:14.093Z,37.13
2023-04-10T11:24:17.241Z,24.97
2023-04-10T11:27:52.892Z,25.33
2023-04-10T11:30:56.404Z,12.83
2023-04-10T11:34:05.218Z,27.97
2023-04-10T11:37:08.270Z,30.87
2023-04-10T11:40:12.406Z,10.63
2023-04-10T11:43:15.807Z,24.00
2023-04-10T11:46:19.296Z,13.60
2023-04-10T11:49:25.621Z,27.50
2023-04-10T11:52:28.870Z,27.43
2023-04-10T11:55:39.702Z,29.63
2023-04-10T11:58:42.870Z,16.20
2023-04-10T12:01:46.399Z,13.67
2023-04-10T12:04:59.751Z,14.90
2023-04-10T12:08:03.029Z,10.73
2023-04-10T12:11:06.597Z,8.40
2023-04-10T12:14:09.735Z,9.50
2023-04-10T12:17:13.984Z,10.03
2023-04-10T12:20:18.884Z,8.70
2023-04-10T12:23:22.120Z,8.70
2023-04-10T12:26:26.014Z,8.83
2023-04-10T12:29:29.428Z,7.77
2023-04-10T12:32:33.259Z,8.23
2023-04-10T12:35:42.589Z,7.53
2023-04-10T12:38:46.069Z,8.77
2023-04-10T12:41:49.212Z,9.43
2023-04-10T12:44:54.505Z,8.43
2023-04-10T12:47:57.740Z,8.70
2023-04-10T12:51:02.737Z,8.27
2023-04-10T12:54:05.912Z,8.83
2023-04-10T12:57:09.083Z,8.37
2023-04-10T13:00:14.945Z,8.13
2023-04-10T13:03:18.114Z,8.57
2023-04-10T13:06:22.667Z,8.20
2023-04-10T13:09:25.803Z,7.80
2023-04-10T13:12:30.288Z,7.87
2023-04-10T13:15:34.586Z,8.93
2023-04-10T13:18:37.742Z,8.47
2023-04-10T13:21:42.218Z,8.33
2023-04-10T13:24:45.736Z,8.30
2023-04-10T13:27:48.875Z,8.30
2023-04-10T13:30:52.262Z,10.53
2023-04-10T13:33:55.316Z,9.40
2023-04-10T13:36:59.948Z,8.60
2023-04-10T13:40:03.103Z,9.10
2023-04-10T13:43:08.392Z,8.23
2023-04-10T13:46:14.651Z,7.17
2023-04-10T13:49:18.029Z,9.70
2023-04-10T13:52:22.554Z,9.10
2023-04-10T13:55:25.638Z,8.00
2023-04-10T13:58:31.934Z,7.57
2023-04-10T14:01:35.390Z,7.00
2023-04-10T14:04:38.490Z,6.90
2023-04-10T14:07:42.982Z,8.77
2023-04-10T14:10:50.674Z,8.90
2023-04-10T14:13:53.805Z,8.83
2023-04-10T14:16:57.063Z,7.63
2023-04-10T14:20:00.307Z,7.47
2023-04-10T14:23:04.810Z,8.10
2023-04-10T14:26:08.208Z,7.40
2023-04-10T14:29:11.303Z,9.30
2023-04-10T14:32:14.413Z,8.47
2023-04-10T14:35:18.235Z,7.83
2023-04-10T14:38:22.689Z,8.37
2023-04-10T14:41:25.859Z,9.17
2023-04-10T14:44:30.305Z,9.07
2023-04-10T14:47:33.667Z,9.73
2023-04-10T14:50:36.833Z,8.80
2023-04-10T14:53:41.478Z,9.10
2023-04-10T14:56:44.890Z,9.20
2023-04-10T14:59:48.012Z,7.67
2023-04-10T15:02:51.415Z,7.60
2023-04-10T15:06:00.481Z,9.07
2023-04-10T15:09:05.250Z,8.10
2023-04-10T15:12:08.639Z,8.37
2023-04-10T15:15:12.396Z,7.43
2023-04-10T15:18:15.714Z,7.70
2023-04-10T15:21:20.643Z,7.53
2023-04-10T15:24:25.107Z,8.67
2023-04-10T15:27:28.190Z,7.87
2023-04-10T15:30:31.996Z,8.27
2023-04-10T15:33:36.459Z,7.70
2023-04-10T15:36:39.681Z,7.90
2023-04-10T15:39:44.144Z,7.30
2023-04-10T15:42:47.324Z,7.57
2023-04-10T15:45:50.517Z,7.53
2023-04-10T15:48:53.653Z,8.47
2023-04-10T15:51:56.744Z,6.40
2023-04-10T15:55:01.186Z,8.47
2023-04-10T15:58:04.229Z,7.23
2023-04-10T16:01:10.765Z,8.47
2023-04-10T16:04:14.121Z,8.13
2023-04-10T16:07:18.470Z,7.20
2023-04-10T16:10:22.987Z,7.33
2023-04-10T16:13:26.160Z,7.20
2023-04-10T16:16:30.604Z,7.27
2023-04-10T16:19:33.860Z,7.07
2023-04-10T16:22:40.241Z,7.33
2023-04-10T16:25:44.795Z,6.93
2023-04-10T16:28:47.828Z,8.00
2023-04-10T16:31:51.140Z,7.33
2023-04-10T16:34:54.364Z,6.80
2023-04-10T16:37:57.439Z,6.53
2023-04-10T16:41:03.244Z,7.77
2023-04-10T16:44:06.436Z,7.70
2023-04-10T16:47:09.858Z,8.87
2023-04-10T16:50:13.449Z,7.47
2023-04-10T16:53:16.577Z,7.60
2023-04-10T16:56:21.193Z,7.80
2023-04-10T16:59:24.320Z,7.43
2023-04-10T17:02:29.813Z,8.20
2023-04-10T17:05:36.373Z,7.60
2023-04-10T17:08:39.527Z,8.20
2023-04-10T17:11:44.388Z,7.67
2023-04-10T17:14:47.464Z,6.47
2023-04-10T17:17:51.096Z,7.67
2023-04-10T17:20:54.256Z,7.93
2023-04-10T17:23:57.346Z,7.77
2023-04-10T17:27:02.185Z,8.97
2023-04-10T17:30:05.852Z,6.57
2023-04-10T17:33:09.277Z,7.83
2023-04-10T17:36:14.197Z,8.97
2023-04-10T17:39:17.805Z,8.53
2023-04-10T17:42:23.829Z,7.10
2023-04-10T17:45:26.941Z,7.80
2023-04-10T17:48:30.946Z,6.43
2023-04-10T17:51:34.359Z,8.40
2023-04-10T17:54:37.420Z,8.57
2023-04-10T17:57:41.939Z,14.53
2023-04-10T18:00:45.044Z,105.37
2023-04-10T18:03:48.274Z,64.80
2023-04-10T18:06:51.446Z,29.30
2023-04-10T18:09:54.920Z,12.77
2023-04-10T18:12:59.513Z,9.10
2023-04-10T18:16:03.496Z,14.90
2023-04-10T18:19:07.284Z,14.53
2023-04-10T18:22:10.590Z,10.83
2023-04-10T18:25:13.651Z,12.73
2023-04-10T18:28:20.385Z,9.63
2023-04-10T18:31:24.161Z,24.63
2023-04-10T18:34:27.926Z,20.03
2023-04-10T18:37:32.004Z,14.10
2023-04-10T18:40:36.942Z,15.27
2023-04-10T18:43:42.368Z,18.40
2023-04-10T18:46:54.037Z,15.80
2023-04-10T18:50:04.849Z,13.50
2023-04-10T18:53:08.682Z,13.47
2023-04-10T18:56:12.245Z,11.77
2023-04-10T18:59:17.001Z,12.10
2023-04-10T19:02:20.772Z,12.50
2023-04-10T19:05:24.513Z,14.10
2023-04-10T19:08:28.071Z,14.17
2023-04-10T19:11:31.894Z,15.40
2023-04-10T19:14:39.133Z,16.90
2023-04-10T19:17:42.851Z,15.13
2023-04-10T19:20:52.080Z,13.83
2023-04-10T19:23:56.938Z,15.63
2023-04-10T19:27:02.968Z,14.97
2023-04-10T19:30:09.458Z,17.83
2023-04-10T19:33:13.333Z,16.50
2023-04-10T19:36:20.697Z,14.40
2023-04-10T19:39:24.441Z,12.90
2023-04-10T19:42:28.327Z,12.60
2023-04-10T19:45:34.068Z,12.77
2023-04-10T19:48:37.617Z,12.73
2023-04-10T19:51:41.154Z,11.53
2023-04-10T19:54:44.513Z,11.73
2023-04-10T19:57:49.210Z,12.13
2023-04-10T20:00:55.741Z,12.47
2023-04-10T20:03:59.239Z,11.93
2023-04-10T20:07:02.445Z,12.47
2023-04-10T20:10:06.267Z,13.90
2023-04-10T20:13:09.475Z,16.40
2023-04-10T20:16:14.070Z,12.50
2023-04-10T20:19:17.250Z,11.80
2023-04-10T20:22:20.353Z,19.43
2023-04-10T20:25:23.441Z,13.23
2023-04-10T20:28:26.559Z,11.97
2023-04-10T20:31:32.670Z,14.60
2023-04-10T20:34:37.801Z,12.50
2023-04-10T20:37:41.015Z,11.40
2023-04-10T20:40:44.165Z,12.10
2023-04-10T20:43:47.354Z,18.20
2023-04-10T20:46:51.860Z,13.03
2023-04-10T20:49:54.997Z,13.63
2023-04-10T20:52:58.118Z,11.50
2023-04-10T20:56:02.189Z,11.60
2023-04-10T20:59:06.635Z,11.43
2023-04-10T21:02:11.203Z,12.17
2023-04-10T21:05:14.430Z,13.50
2023-04-10T21:08:19.300Z,12.00
2023-04-10T21:11:22.427Z,15.27
2023-04-10T21:14:25.657Z,12.63
2023-04-10T21:17:31.564Z,12.60
2023-04-10T21:20:35.112Z,12.77
2023-04-10T21:23:38.380Z,11.80
2023-04-10T21:26:41.494Z,10.93
2023-04-10T21:29:44.633Z,12.90
2023-04-10T21:32:49.198Z,16.00
2023-04-10T21:35:52.439Z,11.50
2023-04-10T21:38:55.783Z,13.03
2023-04-10T21:41:59.096Z,12.47
2023-04-10T21:45:02.273Z,10.93
2023-04-10T21:48:07.099Z,12.50
2023-04-10T21:51:10.209Z,12.40
2023-04-10T21:54:13.482Z,13.70
2023-04-10T21:57:16.587Z,13.43
2023-04-10T22:00:22.115Z,13.17
2023-04-10T22:03:27.683Z,12.30
2023-04-10T22:06:31.535Z,21.00
2023-04-10T22:09:34.676Z,12.10
2023-04-10T22:12:37.864Z,12.70
2023-04-10T22:15:40.919Z,15.93
2023-04-10T22:18:45.367Z,17.47
2023-04-10T22:21:48.398Z,13.20
2023-04-10T22:24:51.606Z,13.50
2023-04-10T22:27:54.765Z,12.57
2023-04-10T22:30:57.919Z,13.83
2023-04-10T22:34:02.428Z,15.67
2023-04-10T22:37:05.647Z,10.97
2023-04-10T22:40:10.168Z,12.00
2023-04-10T22:43:13.414Z,12.20
2023-04-10T22:46:16.568Z,12.97
2023-04-10T22:49:21.167Z,13.80
2023-04-10T22:52:24.259Z,12.40
2023-04-10T22:55:27.386Z,12.80
2023-04-10T22:58:30.637Z,11.60
2023-04-10T23:01:33.947Z,10.37
2023-04-10T23:04:38.675Z,12.43
2023-04-10T23:07:41.752Z,11.50
2023-04-10T23:10:45.013Z,15.10
2023-04-10T23:13:48.825Z,11.60
2023-04-10T23:16:52.455Z,11.33
2023-04-10T23:19:57.238Z,12.53
2023-04-10T23:23:00.299Z,10.50
2023-04-10T23:26:03.421Z,11.90
2023-04-10T23:29:06.628Z,11.63
2023-04-10T23:32:09.669Z,11.50
2023-04-10T23:35:14.240Z,12.57
2023-04-10T23:38:17.388Z,11.47
2023-04-10T23:41:21.556Z,12.43
2023-04-10T23:44:24.927Z,12.37
2023-04-10T23:47:28.137Z,10.60
2023-04-10T23:50:32.686Z,10.17
2023-04-10T23:53:36.494Z,12.23
2023-04-10T23:56:39.621Z,12.53
2023-04-10T23:59:42.736Z,10.90
